sensor_id;sensor_type;location;lat;lon;timestamp;pressure;altitude;pressure_sealevel;temperature;humidity
65718;BME280;52445;52.466;-1.016;2023-10-31T00:00:17;98368.09;;;7.51;73.98
65718;BME280;52445;52.466;-1.016;2023-10-31T00:02:44;98370.72;;;7.48;73.57
65718;BME280;52445;52.466;-1.016;2023-10-31T00:05:10;98369.03;;;7.45;73.73
65718;BME280;52445;52.466;-1.016;2023-10-31T00:07:37;98367.34;;;7.44;72.94
65718;BME280;52445;52.466;-1.016;2023-10-31T00:10:04;98365.69;;;7.41;73.08
65718;BME280;52445;52.466;-1.016;2023-10-31T00:12:32;98373.41;;;7.41;73.52
65718;BME280;52445;52.466;-1.016;2023-10-31T00:14:58;98368.25;;;7.41;73.11
65718;BME280;52445;52.466;-1.016;2023-10-31T00:17:25;98381.09;;;7.43;73.50
65718;BME280;52445;52.466;-1.016;2023-10-31T00:19:51;98389.66;;;7.43;73.68
65718;BME280;52445;52.466;-1.016;2023-10-31T00:22:18;98383.63;;;7.44;72.75
65718;BME280;52445;52.466;-1.016;2023-10-31T00:24:46;98387.94;;;7.44;73.19
65718;BME280;52445;52.466;-1.016;2023-10-31T00:27:12;98382.84;;;7.41;73.39
65718;BME280;52445;52.466;-1.016;2023-10-31T00:29:41;98381.97;;;7.40;72.94
65718;BME280;52445;52.466;-1.016;2023-10-31T00:32:07;98375.13;;;7.39;73.33
65718;BME280;52445;52.466;-1.016;2023-10-31T00:34:34;98383.72;;;7.41;73.63
65718;BME280;52445;52.466;-1.016;2023-10-31T00:37:01;98381.94;;;7.43;73.32
65718;BME280;52445;52.466;-1.016;2023-10-31T00:39:27;98381.97;;;7.40;72.80
65718;BME280;52445;52.466;-1.016;2023-10-31T00:41:54;98383.75;;;7.38;74.56
65718;BME280;52445;52.466;-1.016;2023-10-31T00:44:21;98386.41;;;7.32;73.78
65718;BME280;52445;52.466;-1.016;2023-10-31T00:46:47;98387.38;;;7.25;74.15
65718;BME280;52445;52.466;-1.016;2023-10-31T00:49:14;98384.94;;;7.18;72.94
65718;BME280;52445;52.466;-1.016;2023-10-31T00:51:41;98370.41;;;7.14;72.67
65718;BME280;52445;52.466;-1.016;2023-10-31T00:54:08;98381.59;;;7.12;73.38
65718;BME280;52445;52.466;-1.016;2023-10-31T00:56:34;98382.47;;;7.09;74.22
65718;BME280;52445;52.466;-1.016;2023-10-31T00:59:01;98388.53;;;7.06;73.79
65718;BME280;52445;52.466;-1.016;2023-10-31T01:01:28;98392.84;;;7.06;73.13
65718;BME280;52445;52.466;-1.016;2023-10-31T01:03:55;98393.69;;;7.05;74.06
65718;BME280;52445;52.466;-1.016;2023-10-31T01:06:21;98385.16;;;7.04;74.31
65718;BME280;52445;52.466;-1.016;2023-10-31T01:08:48;98389.38;;;7.07;73.87
65718;BME280;52445;52.466;-1.016;2023-10-31T01:11:15;98381.66;;;7.07;74.02
65718;BME280;52445;52.466;-1.016;2023-10-31T01:13:41;98382.47;;;7.09;72.96
65718;BME280;52445;52.466;-1.016;2023-10-31T01:16:08;98376.47;;;7.10;73.67
65718;BME280;52445;52.466;-1.016;2023-10-31T01:18:35;98380.75;;;7.11;74.34
65718;BME280;52445;52.466;-1.016;2023-10-31T01:21:01;98383.28;;;7.13;74.38
65718;BME280;52445;52.466;-1.016;2023-10-31T01:23:28;98375.59;;;7.11;74.21
65718;BME280;52445;52.466;-1.016;2023-10-31T01:25:55;98375.59;;;7.11;73.30
65718;BME280;52445;52.466;-1.016;2023-10-31T01:28:21;98377.31;;;7.09;74.70
65718;BME280;52445;52.466;-1.016;2023-10-31T01:30:48;98385.06;;;7.07;73.62
65718;BME280;52445;52.466;-1.016;2023-10-31T01:33:15;98375.69;;;7.05;73.81
65718;BME280;52445;52.466;-1.016;2023-10-31T01:35:42;98380.06;;;7.00;74.85
65718;BME280;52445;52.466;-1.016;2023-10-31T01:38:09;98378.41;;;6.96;74.74
65718;BME280;52445;52.466;-1.016;2023-10-31T01:40:37;98374.22;;;6.88;74.35
65718;BME280;52445;52.466;-1.016;2023-10-31T01:43:03;98373.41;;;6.85;74.90
65718;BME280;52445;52.466;-1.016;2023-10-31T01:45:30;98376.84;;;6.84;74.75
65718;BME280;52445;52.466;-1.016;2023-10-31T01:47:57;98376.84;;;6.84;74.63
65718;BME280;52445;52.466;-1.016;2023-10-31T01:50:24;98384.59;;;6.82;74.12
65718;BME280;52445;52.466;-1.016;2023-10-31T01:52:51;98384.66;;;6.79;74.20
65718;BME280;52445;52.466;-1.016;2023-10-31T01:55:18;98384.66;;;6.77;73.71
65718;BME280;52445;52.466;-1.016;2023-10-31T01:57:46;98394.09;;;6.77;73.60
65718;BME280;52445;52.466;-1.016;2023-10-31T02:00:14;98394.94;;;6.79;75.35
65718;BME280;52445;52.466;-1.016;2023-10-31T02:02:41;98395.78;;;6.79;74.90
65718;BME280;52445;52.466;-1.016;2023-10-31T02:05:09;98397.47;;;6.80;74.98
65718;BME280;52445;52.466;-1.016;2023-10-31T02:07:36;98399.19;;;6.81;75.27
65718;BME280;52445;52.466;-1.016;2023-10-31T02:10:03;98397.47;;;6.80;75.40
65718;BME280;52445;52.466;-1.016;2023-10-31T02:12:32;98403.44;;;6.84;74.45
65718;BME280;52445;52.466;-1.016;2023-10-31T02:14:59;98403.44;;;6.86;75.14
65718;BME280;52445;52.466;-1.016;2023-10-31T02:17:26;98402.53;;;6.88;74.04
65718;BME280;52445;52.466;-1.016;2023-10-31T02:19:54;98405.09;;;6.88;74.53
65718;BME280;52445;52.466;-1.016;2023-10-31T02:22:22;98404.22;;;6.89;73.87
65718;BME280;52445;52.466;-1.016;2023-10-31T02:24:48;98411.94;;;6.89;73.63
65718;BME280;52445;52.466;-1.016;2023-10-31T02:27:15;98408.53;;;6.90;75.51
65718;BME280;52445;52.466;-1.016;2023-10-31T02:29:42;98413.66;;;6.90;74.99
65718;BME280;52445;52.466;-1.016;2023-10-31T02:32:09;98402.50;;;6.91;73.91
65718;BME280;52445;52.466;-1.016;2023-10-31T02:34:35;98411.03;;;6.92;74.11
65718;BME280;52445;52.466;-1.016;2023-10-31T02:37:02;98408.53;;;6.90;74.64
65718;BME280;52445;52.466;-1.016;2023-10-31T02:39:29;98408.53;;;6.90;74.23
65718;BME280;52445;52.466;-1.016;2023-10-31T02:41:55;98405.94;;;6.90;75.37
65718;BME280;52445;52.466;-1.016;2023-10-31T02:44:22;98411.09;;;6.90;74.18
65718;BME280;52445;52.466;-1.016;2023-10-31T02:46:49;98414.50;;;6.91;74.69
65718;BME280;52445;52.466;-1.016;2023-10-31T02:49:15;98410.22;;;6.91;75.55
65718;BME280;52445;52.466;-1.016;2023-10-31T02:51:42;98407.63;;;6.91;74.58
65718;BME280;52445;52.466;-1.016;2023-10-31T02:54:09;98400.78;;;6.90;75.53
65718;BME280;52445;52.466;-1.016;2023-10-31T02:56:35;98403.41;;;6.87;74.39
65718;BME280;52445;52.466;-1.016;2023-10-31T02:59:02;98408.56;;;6.87;74.73
65718;BME280;52445;52.466;-1.016;2023-10-31T03:01:29;98400.88;;;6.84;74.65
65718;BME280;52445;52.466;-1.016;2023-10-31T03:03:56;98400.03;;;6.82;75.45
65718;BME280;52445;52.466;-1.016;2023-10-31T03:06:22;98392.31;;;6.80;75.72
65718;BME280;52445;52.466;-1.016;2023-10-31T03:08:49;98388.91;;;6.80;74.68
65718;BME280;52445;52.466;-1.016;2023-10-31T03:11:24;98400.09;;;6.79;75.29
65718;BME280;52445;52.466;-1.016;2023-10-31T03:13:51;98399.22;;;6.80;74.27
65718;BME280;52445;52.466;-1.016;2023-10-31T03:16:19;98394.94;;;6.79;75.87
65718;BME280;52445;52.466;-1.016;2023-10-31T03:18:46;98400.09;;;6.79;74.78
65718;BME280;52445;52.466;-1.016;2023-10-31T03:21:13;98397.53;;;6.79;76.07
65718;BME280;52445;52.466;-1.016;2023-10-31T03:23:43;98391.50;;;6.80;75.88
65718;BME280;52445;52.466;-1.016;2023-10-31T03:26:10;98381.19;;;6.80;75.27
65718;BME280;52445;52.466;-1.016;2023-10-31T03:28:36;98394.03;;;6.81;75.79
65718;BME280;52445;52.466;-1.016;2023-10-31T03:31:03;98384.56;;;6.84;74.75
65718;BME280;52445;52.466;-1.016;2023-10-31T03:33:30;98381.94;;;6.87;74.47
65718;BME280;52445;52.466;-1.016;2023-10-31T03:35:56;98375.13;;;6.86;75.80
65718;BME280;52445;52.466;-1.016;2023-10-31T03:38:23;98388.81;;;6.86;74.55
65718;BME280;52445;52.466;-1.016;2023-10-31T03:40:50;98392.25;;;6.85;75.84
65718;BME280;52445;52.466;-1.016;2023-10-31T03:43:16;98386.31;;;6.83;74.39
65718;BME280;52445;52.466;-1.016;2023-10-31T03:45:43;98386.34;;;6.80;75.59
65718;BME280;52445;52.466;-1.016;2023-10-31T03:48:10;98386.34;;;6.80;75.29
65718;BME280;52445;52.466;-1.016;2023-10-31T03:50:36;98378.63;;;6.80;75.22
65718;BME280;52445;52.466;-1.016;2023-10-31T03:53:03;98379.50;;;6.79;74.79
65718;BME280;52445;52.466;-1.016;2023-10-31T03:55:30;98376.94;;;6.79;76.13
65718;BME280;52445;52.466;-1.016;2023-10-31T03:57:56;98388.91;;;6.80;75.17
65718;BME280;52445;52.466;-1.016;2023-10-31T04:00:23;98389.72;;;6.82;75.63
65718;BME280;52445;52.466;-1.016;2023-10-31T04:02:50;98391.47;;;6.83;75.38
65718;BME280;52445;52.466;-1.016;2023-10-31T04:05:17;98391.47;;;6.83;75.55
65718;BME280;52445;52.466;-1.016;2023-10-31T04:07:47;98388.00;;;6.84;75.66
65718;BME280;52445;52.466;-1.016;2023-10-31T04:10:14;98388.00;;;6.84;75.06
65718;BME280;52445;52.466;-1.016;2023-10-31T04:12:41;98394.84;;;6.85;76.73
65718;BME280;52445;52.466;-1.016;2023-10-31T04:15:09;98398.25;;;6.87;76.57
65718;BME280;52445;52.466;-1.016;2023-10-31T04:17:35;98393.13;;;6.87;75.09
65718;BME280;52445;52.466;-1.016;2023-10-31T04:20:02;98391.38;;;6.88;75.86
65718;BME280;52445;52.466;-1.016;2023-10-31T04:22:29;98393.13;;;6.87;76.58
65718;BME280;52445;52.466;-1.016;2023-10-31T04:24:56;98393.97;;;6.86;76.06
65718;BME280;52445;52.466;-1.016;2023-10-31T04:27:23;98403.44;;;6.84;77.27
65718;BME280;52445;52.466;-1.016;2023-10-31T04:29:49;98402.56;;;6.84;76.08
65718;BME280;52445;52.466;-1.016;2023-10-31T04:32:16;98410.31;;;6.82;76.02
65718;BME280;52445;52.466;-1.016;2023-10-31T04:34:43;98410.31;;;6.82;77.34
65718;BME280;52445;52.466;-1.016;2023-10-31T04:37:09;98410.31;;;6.82;76.99
65718;BME280;52445;52.466;-1.016;2023-10-31T04:39:36;98423.16;;;6.85;76.54
65718;BME280;52445;52.466;-1.016;2023-10-31T04:42:03;98413.75;;;6.84;76.62
65718;BME280;52445;52.466;-1.016;2023-10-31T04:44:30;98419.75;;;6.83;77.73
65718;BME280;52445;52.466;-1.016;2023-10-31T04:46:56;98417.19;;;6.83;77.72
65718;BME280;52445;52.466;-1.016;2023-10-31T04:49:23;98418.88;;;6.84;76.45
65718;BME280;52445;52.466;-1.016;2023-10-31T04:51:50;98423.16;;;6.85;77.40
65718;BME280;52445;52.466;-1.016;2023-10-31T04:54:16;98421.47;;;6.84;78.19
65718;BME280;52445;52.466;-1.016;2023-10-31T04:56:43;98428.28;;;6.85;78.22
65718;BME280;52445;52.466;-1.016;2023-10-31T04:59:10;98425.69;;;6.88;78.13
65718;BME280;52445;52.466;-1.016;2023-10-31T05:01:36;98421.34;;;6.92;77.72
65718;BME280;52445;52.466;-1.016;2023-10-31T05:04:04;98429.03;;;6.93;78.02
65718;BME280;52445;52.466;-1.016;2023-10-31T05:06:38;98427.31;;;6.96;78.67
65718;BME280;52445;52.466;-1.016;2023-10-31T05:09:05;98441.00;;;6.98;77.45
65718;BME280;52445;52.466;-1.016;2023-10-31T05:11:32;98440.97;;;7.01;78.12
65718;BME280;52445;52.466;-1.016;2023-10-31T05:13:59;98456.38;;;7.04;76.88
65718;BME280;52445;52.466;-1.016;2023-10-31T05:16:26;98454.56;;;7.09;77.33
65718;BME280;52445;52.466;-1.016;2023-10-31T05:18:53;98456.22;;;7.13;78.26
65718;BME280;52445;52.466;-1.016;2023-10-31T05:21:19;98466.47;;;7.18;78.10
65718;BME280;52445;52.466;-1.016;2023-10-31T05:23:47;98469.88;;;7.22;76.66
65718;BME280;52445;52.466;-1.016;2023-10-31T05:26:14;98468.94;;;7.26;77.03
65718;BME280;52445;52.466;-1.016;2023-10-31T05:28:40;98463.72;;;7.29;77.44
65718;BME280;52445;52.466;-1.016;2023-10-31T05:31:07;98457.69;;;7.33;77.17
65718;BME280;52445;52.466;-1.016;2023-10-31T05:33:34;98453.34;;;7.35;78.05
65718;BME280;52445;52.466;-1.016;2023-10-31T05:36:01;98452.47;;;7.36;76.88
65718;BME280;52445;52.466;-1.016;2023-10-31T05:38:28;98442.16;;;7.36;76.97
65718;BME280;52445;52.466;-1.016;2023-10-31T05:40:55;98450.75;;;7.35;77.75
65718;BME280;52445;52.466;-1.016;2023-10-31T05:43:22;98440.47;;;7.35;77.39
65718;BME280;52445;52.466;-1.016;2023-10-31T05:45:48;98437.06;;;7.33;78.64
65718;BME280;52445;52.466;-1.016;2023-10-31T05:48:15;98439.66;;;7.33;78.59
65718;BME280;52445;52.466;-1.016;2023-10-31T05:50:42;98438.81;;;7.31;78.77
65718;BME280;52445;52.466;-1.016;2023-10-31T05:53:09;98426.81;;;7.30;78.76
65718;BME280;52445;52.466;-1.016;2023-10-31T05:55:38;98431.06;;;7.32;78.77
65718;BME280;52445;52.466;-1.016;2023-10-31T05:58:05;98434.50;;;7.33;79.06
65718;BME280;52445;52.466;-1.016;2023-10-31T06:00:32;98431.94;;;7.33;78.01
65718;BME280;52445;52.466;-1.016;2023-10-31T06:02:59;98439.66;;;7.33;78.79
65718;BME280;52445;52.466;-1.016;2023-10-31T06:05:25;98450.75;;;7.35;77.69
65718;BME280;52445;52.466;-1.016;2023-10-31T06:07:52;98455.88;;;7.38;78.11
65718;BME280;52445;52.466;-1.016;2023-10-31T06:10:19;98462.69;;;7.42;78.86
65718;BME280;52445;52.466;-1.016;2023-10-31T06:12:47;98455.75;;;7.46;78.14
65718;BME280;52445;52.466;-1.016;2023-10-31T06:15:13;98471.13;;;7.51;78.96
65718;BME280;52445;52.466;-1.016;2023-10-31T06:17:40;98475.38;;;7.53;78.64
65718;BME280;52445;52.466;-1.016;2023-10-31T06:20:08;98481.34;;;7.57;77.49
65718;BME280;52445;52.466;-1.016;2023-10-31T06:22:35;98483.84;;;7.60;77.72
65718;BME280;52445;52.466;-1.016;2023-10-31T06:25:01;98488.97;;;7.63;78.37
65718;BME280;52445;52.466;-1.016;2023-10-31T06:27:28;98485.47;;;7.67;77.67
65718;BME280;52445;52.466;-1.016;2023-10-31T06:29:55;98483.72;;;7.69;77.51
65718;BME280;52445;52.466;-1.016;2023-10-31T06:32:41;98482.81;;;7.74;77.31
65718;BME280;52445;52.466;-1.016;2023-10-31T06:35:08;98475.88;;;7.76;78.47
65718;BME280;52445;52.466;-1.016;2023-10-31T06:37:35;98471.56;;;7.78;78.25
65718;BME280;52445;52.466;-1.016;2023-10-31T06:40:04;98477.56;;;7.80;78.08
65718;BME280;52445;52.466;-1.016;2023-10-31T06:42:31;98467.28;;;7.77;78.59
65718;BME280;52445;52.466;-1.016;2023-10-31T06:44:57;98468.22;;;7.72;78.90
65718;BME280;52445;52.466;-1.016;2023-10-31T06:47:24;98467.38;;;7.70;78.13
65718;BME280;52445;52.466;-1.016;2023-10-31T06:49:51;98475.13;;;7.70;78.29
65718;BME280;52445;52.466;-1.016;2023-10-31T06:52:17;98473.41;;;7.71;78.31
65718;BME280;52445;52.466;-1.016;2023-10-31T06:54:44;98476.00;;;7.69;78.08
65718;BME280;52445;52.466;-1.016;2023-10-31T06:57:11;98481.16;;;7.69;78.33
65718;BME280;52445;52.466;-1.016;2023-10-31T06:59:38;98477.69;;;7.70;79.34
65718;BME280;52445;52.466;-1.016;2023-10-31T07:02:04;98475.13;;;7.70;78.10
65718;BME280;52445;52.466;-1.016;2023-10-31T07:04:31;98464.00;;;7.68;78.81
65718;BME280;52445;52.466;-1.016;2023-10-31T07:06:58;98475.94;;;7.72;79.22
65718;BME280;52445;52.466;-1.016;2023-10-31T07:09:26;98465.66;;;7.72;79.60
65718;BME280;52445;52.466;-1.016;2023-10-31T07:11:53;98475.94;;;7.72;79.29
65718;BME280;52445;52.466;-1.016;2023-10-31T07:14:19;98475.06;;;7.74;78.24
65718;BME280;52445;52.466;-1.016;2023-10-31T07:16:47;98473.31;;;7.76;79.03
65718;BME280;52445;52.466;-1.016;2023-10-31T07:19:15;98475.84;;;7.79;78.69
65718;BME280;52445;52.466;-1.016;2023-10-31T07:21:42;98486.19;;;7.76;79.74
65718;BME280;52445;52.466;-1.016;2023-10-31T07:24:09;98484.44;;;7.78;79.76
65718;BME280;52445;52.466;-1.016;2023-10-31T07:26:36;98480.13;;;7.80;79.92
65718;BME280;52445;52.466;-1.016;2023-10-31T07:29:03;98486.09;;;7.82;79.89
65718;BME280;52445;52.466;-1.016;2023-10-31T07:31:30;98498.06;;;7.86;78.94
65718;BME280;52445;52.466;-1.016;2023-10-31T07:33:56;98491.97;;;7.90;78.91
65718;BME280;52445;52.466;-1.016;2023-10-31T07:36:23;98497.09;;;7.93;79.09
65718;BME280;52445;52.466;-1.016;2023-10-31T07:38:50;98501.34;;;7.94;79.01
65718;BME280;52445;52.466;-1.016;2023-10-31T07:41:16;98512.47;;;7.98;79.89
65718;BME280;52445;52.466;-1.016;2023-10-31T07:43:43;98526.16;;;8.02;78.85
65718;BME280;52445;52.466;-1.016;2023-10-31T07:46:09;98526.94;;;8.07;79.78
65718;BME280;52445;52.466;-1.016;2023-10-31T07:48:36;98527.69;;;8.14;79.96
65718;BME280;52445;52.466;-1.016;2023-10-31T07:51:04;98531.94;;;8.16;79.77
65718;BME280;52445;52.466;-1.016;2023-10-31T07:53:31;98535.31;;;8.18;78.95
65718;BME280;52445;52.466;-1.016;2023-10-31T07:55:58;98528.38;;;8.23;78.95
65718;BME280;52445;52.466;-1.016;2023-10-31T07:58:24;98525.69;;;8.28;79.10
65718;BME280;52445;52.466;-1.016;2023-10-31T08:00:51;98529.97;;;8.31;79.01
65718;BME280;52445;52.466;-1.016;2023-10-31T08:03:18;98529.06;;;8.33;79.26
65718;BME280;52445;52.466;-1.016;2023-10-31T08:05:45;98525.56;;;8.38;79.86
65718;BME280;52445;52.466;-1.016;2023-10-31T08:08:12;98527.22;;;8.40;79.51
65718;BME280;52445;52.466;-1.016;2023-10-31T08:10:38;98535.72;;;8.45;79.68
65718;BME280;52445;52.466;-1.016;2023-10-31T08:13:05;98536.50;;;8.51;79.03
65718;BME280;52445;52.466;-1.016;2023-10-31T08:15:32;98535.56;;;8.56;79.51
65718;BME280;52445;52.466;-1.016;2023-10-31T08:17:58;98546.66;;;8.60;79.15
65718;BME280;52445;52.466;-1.016;2023-10-31T08:20:25;98550.91;;;8.63;79.47
65718;BME280;52445;52.466;-1.016;2023-10-31T08:22:52;98552.53;;;8.68;79.22
65718;BME280;52445;52.466;-1.016;2023-10-31T08:25:19;98553.31;;;8.73;79.23
65718;BME280;52445;52.466;-1.016;2023-10-31T08:27:45;98541.16;;;8.79;79.36
65718;BME280;52445;52.466;-1.016;2023-10-31T08:30:13;98549.66;;;8.84;79.53
65718;BME280;52445;52.466;-1.016;2023-10-31T08:32:40;98546.97;;;8.90;79.35
65718;BME280;52445;52.466;-1.016;2023-10-31T08:35:08;98536.56;;;8.93;79.39
65718;BME280;52445;52.466;-1.016;2023-10-31T08:37:34;98543.38;;;8.97;78.83
65718;BME280;52445;52.466;-1.016;2023-10-31T08:40:02;98546.75;;;8.99;79.69
65718;BME280;52445;52.466;-1.016;2023-10-31T08:42:30;98538.16;;;9.00;79.49
65718;BME280;52445;52.466;-1.016;2023-10-31T08:44:56;98532.91;;;9.04;78.97
65718;BME280;52445;52.466;-1.016;2023-10-31T08:47:23;98539.75;;;9.06;79.51
65718;BME280;52445;52.466;-1.016;2023-10-31T08:49:50;98537.19;;;9.06;79.45
65718;BME280;52445;52.466;-1.016;2023-10-31T08:52:17;98544.84;;;9.09;79.77
65718;BME280;52445;52.466;-1.016;2023-10-31T08:54:44;98545.69;;;9.10;79.50
65718;BME280;52445;52.466;-1.016;2023-10-31T08:57:11;98543.94;;;9.12;79.73
65718;BME280;52445;52.466;-1.016;2023-10-31T08:59:37;98552.47;;;9.16;79.73
65718;BME280;52445;52.466;-1.016;2023-10-31T09:02:04;98555.81;;;9.19;79.70
65718;BME280;52445;52.466;-1.016;2023-10-31T09:04:31;98554.06;;;9.21;79.79
65718;BME280;52445;52.466;-1.016;2023-10-31T09:06:57;98554.00;;;9.24;79.46
65718;BME280;52445;52.466;-1.016;2023-10-31T09:09:24;98559.13;;;9.28;79.90
65718;BME280;52445;52.466;-1.016;2023-10-31T09:11:51;98559.03;;;9.31;79.83
65718;BME280;52445;52.466;-1.016;2023-10-31T09:14:17;98550.31;;;9.35;79.65
65718;BME280;52445;52.466;-1.016;2023-10-31T09:16:44;98552.81;;;9.39;79.69
65718;BME280;52445;52.466;-1.016;2023-10-31T09:19:11;98543.22;;;9.45;79.86
65718;BME280;52445;52.466;-1.016;2023-10-31T09:21:37;98544.06;;;9.47;79.57
65718;BME280;52445;52.466;-1.016;2023-10-31T09:24:04;98547.41;;;9.50;79.71
65718;BME280;52445;52.466;-1.016;2023-10-31T09:26:31;98556.81;;;9.55;79.53
65718;BME280;52445;52.466;-1.016;2023-10-31T09:28:58;98558.44;;;9.59;79.86
65718;BME280;52445;52.466;-1.016;2023-10-31T09:31:25;98566.97;;;9.62;79.76
65718;BME280;52445;52.466;-1.016;2023-10-31T09:33:51;98561.69;;;9.67;79.78
65718;BME280;52445;52.466;-1.016;2023-10-31T09:36:19;98555.59;;;9.70;79.75
65718;BME280;52445;52.466;-1.016;2023-10-31T09:38:46;98561.50;;;9.75;79.83
65718;BME280;52445;52.466;-1.016;2023-10-31T09:41:13;98553.63;;;9.81;79.31
65718;BME280;52445;52.466;-1.016;2023-10-31T09:43:41;98568.13;;;9.87;79.27
65718;BME280;52445;52.466;-1.016;2023-10-31T09:46:08;98568.03;;;9.92;79.59
65718;BME280;52445;52.466;-1.016;2023-10-31T09:48:37;98563.63;;;9.95;79.47
65718;BME280;52445;52.466;-1.016;2023-10-31T09:51:05;98567.84;;;9.99;80.00
65718;BME280;52445;52.466;-1.016;2023-10-31T09:53:33;98568.56;;;10.05;79.49
65718;BME280;52445;52.466;-1.016;2023-10-31T09:56:04;98574.53;;;10.08;80.24
65718;BME280;52445;52.466;-1.016;2023-10-31T09:58:31;98570.13;;;10.12;79.57
65718;BME280;52445;52.466;-1.016;2023-10-31T10:00:57;98570.03;;;10.15;79.27
65718;BME280;52445;52.466;-1.016;2023-10-31T10:03:24;98567.31;;;10.21;79.36
65718;BME280;52445;52.466;-1.016;2023-10-31T10:05:52;98569.78;;;10.26;80.12
65718;BME280;52445;52.466;-1.016;2023-10-31T10:08:20;98574.84;;;10.31;80.20
65718;BME280;52445;52.466;-1.016;2023-10-31T10:10:47;98579.03;;;10.35;79.65
65718;BME280;52445;52.466;-1.016;2023-10-31T10:13:17;98570.31;;;10.39;79.59
65718;BME280;52445;52.466;-1.016;2023-10-31T10:18:31;98578.88;;;10.76;80.66
65718;BME280;52445;52.466;-1.016;2023-10-31T10:21:00;98579.94;;;10.69;80.17
65718;BME280;52445;52.466;-1.016;2023-10-31T10:23:27;98578.13;;;10.72;80.59
65718;BME280;52445;52.466;-1.016;2023-10-31T10:25:56;98579.72;;;10.76;80.45
65718;BME280;52445;52.466;-1.016;2023-10-31T10:28:24;98581.34;;;10.80;80.32
65718;BME280;52445;52.466;-1.016;2023-10-31T10:30:52;98586.44;;;10.84;79.79
65718;BME280;52445;52.466;-1.016;2023-10-31T10:33:21;98588.03;;;10.89;80.67
65718;BME280;52445;52.466;-1.016;2023-10-31T10:35:47;98597.25;;;10.98;80.79
65718;BME280;52445;52.466;-1.016;2023-10-31T10:38:16;98593.66;;;11.04;80.88
65718;BME280;52445;52.466;-1.016;2023-10-31T10:40:46;98592.75;;;11.07;80.17
65718;BME280;52445;52.466;-1.016;2023-10-31T10:45:56;98589.31;;;11.04;79.64
65718;BME280;52445;52.466;-1.016;2023-10-31T10:48:26;98594.59;;;11.01;80.32
65718;BME280;52445;52.466;-1.016;2023-10-31T10:53:48;98604.16;;;10.99;80.50
65718;BME280;52445;52.466;-1.016;2023-10-31T10:56:38;98599.97;;;10.95;79.87
65718;BME280;52445;52.466;-1.016;2023-10-31T10:59:10;98598.19;;;10.96;80.65
65718;BME280;52445;52.466;-1.016;2023-10-31T11:01:41;98595.53;;;10.99;79.95
65718;BME280;52445;52.466;-1.016;2023-10-31T11:04:09;98597.25;;;10.98;80.18
65718;BME280;52445;52.466;-1.016;2023-10-31T11:06:37;98600.72;;;10.99;79.16
65718;BME280;52445;52.466;-1.016;2023-10-31T11:09:05;98603.25;;;11.00;80.69
65718;BME280;52445;52.466;-1.016;2023-10-31T11:11:33;98597.06;;;11.06;80.54
65718;BME280;52445;52.466;-1.016;2023-10-31T11:14:00;98595.13;;;11.13;79.83
65718;BME280;52445;52.466;-1.016;2023-10-31T11:16:36;98589.88;;;11.16;79.45
65718;BME280;52445;52.466;-1.016;2023-10-31T11:19:05;98595.00;;;11.17;80.17
65718;BME280;52445;52.466;-1.016;2023-10-31T11:21:34;98591.47;;;11.20;80.19
65718;BME280;52445;52.466;-1.016;2023-10-31T11:24:01;98591.41;;;11.23;79.48
65718;BME280;52445;52.466;-1.016;2023-10-31T11:26:30;98600.88;;;11.24;80.48
65718;BME280;52445;52.466;-1.016;2023-10-31T11:29:12;98600.00;;;11.24;79.54
65718;BME280;52445;52.466;-1.016;2023-10-31T11:31:39;98599.09;;;11.26;80.05
65718;BME280;52445;52.466;-1.016;2023-10-31T11:34:06;98605.16;;;11.25;79.23
65718;BME280;52445;52.466;-1.016;2023-10-31T11:36:33;98604.28;;;11.26;79.78
65718;BME280;52445;52.466;-1.016;2023-10-31T11:39:11;98599.16;;;11.23;79.92
65718;BME280;52445;52.466;-1.016;2023-10-31T11:41:39;98599.13;;;11.25;79.94
65718;BME280;52445;52.466;-1.016;2023-10-31T11:44:06;98606.03;;;11.24;80.01
65718;BME280;52445;52.466;-1.016;2023-10-31T11:46:33;98605.97;;;11.27;80.11
65718;BME280;52445;52.466;-1.016;2023-10-31T11:49:00;98607.66;;;11.28;79.27
65718;BME280;52445;52.466;-1.016;2023-10-31T11:51:28;98608.56;;;11.27;80.18
65718;BME280;52445;52.466;-1.016;2023-10-31T11:53:55;98611.16;;;11.27;80.04
65718;BME280;52445;52.466;-1.016;2023-10-31T11:56:22;98605.97;;;11.27;79.77
65718;BME280;52445;52.466;-1.016;2023-10-31T11:59:05;98608.69;;;11.23;79.82
65718;BME280;52445;52.466;-1.016;2023-10-31T12:01:44;98606.03;;;11.24;79.10
65718;BME280;52445;52.466;-1.016;2023-10-31T12:04:20;98600.25;;;11.16;80.62
65718;BME280;52445;52.466;-1.016;2023-10-31T12:06:56;98597.47;;;11.22;79.56
65718;BME280;52445;52.466;-1.016;2023-10-31T12:09:23;98606.03;;;11.24;79.90
65718;BME280;52445;52.466;-1.016;2023-10-31T12:11:50;98602.56;;;11.25;80.13
65718;BME280;52445;52.466;-1.016;2023-10-31T12:14:18;98598.97;;;11.29;79.93
65718;BME280;52445;52.466;-1.016;2023-10-31T12:16:46;98600.69;;;11.30;78.70
65718;BME280;52445;52.466;-1.016;2023-10-31T12:19:13;98606.63;;;11.34;79.91
65718;BME280;52445;52.466;-1.016;2023-10-31T12:24:17;98609.00;;;11.42;79.63
65718;BME280;52445;52.466;-1.016;2023-10-31T12:26:45;98605.53;;;11.43;80.09
65718;BME280;52445;52.466;-1.016;2023-10-31T12:31:51;98615.72;;;11.49;79.12
65718;BME280;52445;52.466;-1.016;2023-10-31T12:34:20;98621.72;;;11.50;79.55
65718;BME280;52445;52.466;-1.016;2023-10-31T12:36:51;98616.50;;;11.51;80.08
65718;BME280;52445;52.466;-1.016;2023-10-31T12:39:22;98620.78;;;11.52;79.45
65718;BME280;52445;52.466;-1.016;2023-10-31T12:41:49;98614.78;;;11.52;79.24
65718;BME280;52445;52.466;-1.016;2023-10-31T12:44:22;98610.41;;;11.52;79.88
65718;BME280;52445;52.466;-1.016;2023-10-31T12:46:50;98614.72;;;11.53;80.34
65718;BME280;52445;52.466;-1.016;2023-10-31T12:49:19;98614.69;;;11.55;78.99
65718;BME280;52445;52.466;-1.016;2023-10-31T12:52:03;98618.31;;;11.49;79.72
65718;BME280;52445;52.466;-1.016;2023-10-31T12:57:08;98613.63;;;11.89;78.66
65718;BME280;52445;52.466;-1.016;2023-10-31T12:59:37;98628.94;;;11.70;79.84
65718;BME280;52445;52.466;-1.016;2023-10-31T13:02:06;98637.56;;;11.70;79.53
65718;BME280;52445;52.466;-1.016;2023-10-31T13:04:33;98625.34;;;11.74;80.80
65718;BME280;52445;52.466;-1.016;2023-10-31T13:07:03;98623.53;;;11.76;80.29
65718;BME280;52445;52.466;-1.016;2023-10-31T13:09:31;98627.31;;;11.66;80.24
65718;BME280;52445;52.466;-1.016;2023-10-31T13:12:00;98626.19;;;11.75;80.76
65718;BME280;52445;52.466;-1.016;2023-10-31T13:14:27;98631.31;;;11.76;80.20